Time;durP1;ratioP1;P1;durP2;ratioP2;P2;SDS_P1;SDS_P2;PMS_P1;PMS_P2;Temp;Humidity;BMP_temperature;BMP_pressure;BME280_temperature;BME280_humidity;BME280_pressure;Samples;Min_cycle;Max_cycle;Signal;HPM_P1;HPM_P2
2023/12/14 00:00:40;;;;;;;43.78;23.63;;;;;;;6.27;100.00;100755.03;5082042;28;20159;-73
2023/12/14 00:03:05;;;;;;;43.25;23.17;;;;;;;6.23;100.00;100755.84;5083194;28;20153;-74
2023/12/14 00:05:30;;;;;;;39.80;21.30;;;;;;;6.17;100.00;100752.19;5081008;28;20020;-73
2023/12/14 00:07:56;;;;;;;40.60;20.80;;;;;;;6.11;100.00;100758.19;5083861;28;20049;-74
2023/12/14 00:10:21;;;;;;;39.30;20.70;;;;;;;6.09;100.00;100771.28;5080916;28;20422;-74
2023/12/14 00:12:48;;;;;;;39.15;21.05;;;;;;;6.09;100.00;100775.66;5082874;28;20387;-73
2023/12/14 00:15:14;;;;;;;40.97;21.83;;;;;;;6.05;100.00;100768.56;5081983;28;20055;-73
2023/12/14 00:17:39;;;;;;;38.90;20.60;;;;;;;6.04;100.00;100769.41;5081998;28;20183;-74
2023/12/14 00:20:05;;;;;;;39.88;20.80;;;;;;;6.00;100.00;100780.69;5083041;28;20117;-73
2023/12/14 00:22:31;;;;;;;40.38;21.05;;;;;;;5.97;100.00;100785.84;5080558;28;20036;-73
2023/12/14 00:24:56;;;;;;;40.55;21.48;;;;;;;5.94;100.00;100795.44;5083891;28;20166;-74
2023/12/14 00:27:21;;;;;;;40.25;20.95;;;;;;;5.89;100.00;100791.81;5080630;28;20082;-73
2023/12/14 00:29:47;;;;;;;40.75;20.70;;;;;;;5.83;100.00;100807.41;5082922;28;20023;-73
2023/12/14 00:32:12;;;;;;;40.28;21.33;;;;;;;5.83;100.00;100810.03;5081776;28;20105;-72
2023/12/14 00:34:37;;;;;;;40.63;20.60;;;;;;;5.77;100.00;100809.91;5082601;28;20054;-70
2023/12/14 00:37:03;;;;;;;41.05;21.48;;;;;;;5.75;100.00;100825.63;5087115;28;20463;-73
2023/12/14 00:39:28;;;;;;;40.47;20.05;;;;;;;5.76;100.00;100836.97;5084004;28;20037;-73
2023/12/14 00:41:53;;;;;;;43.65;22.67;;;;;;;5.70;100.00;100842.97;5087257;28;20028;-73
2023/12/14 00:44:19;;;;;;;45.67;22.30;;;;;;;5.64;100.00;100847.19;5084671;28;20124;-72
2023/12/14 00:46:44;;;;;;;44.75;23.00;;;;;;;5.61;100.00;100849.72;5085883;28;20029;-73
2023/12/14 00:49:09;;;;;;;45.80;22.45;;;;;;;5.57;100.00;100854.88;5085709;28;20036;-73
2023/12/14 00:51:35;;;;;;;44.67;22.60;;;;;;;5.54;100.00;100849.56;5083477;28;20028;-73
2023/12/14 00:54:00;;;;;;;44.47;22.85;;;;;;;5.47;100.00;100863.38;5086826;28;20532;-64
2023/12/14 00:56:25;;;;;;;46.30;23.08;;;;;;;5.41;100.00;100864.09;5083835;28;20040;-72
2023/12/14 00:58:51;;;;;;;44.38;22.65;;;;;;;5.40;100.00;100871.94;5086761;28;20032;-72
2023/12/14 01:01:16;;;;;;;46.78;23.25;;;;;;;5.31;100.00;100862.09;5084947;28;20028;-73
2023/12/14 01:03:41;;;;;;;44.28;21.88;;;;;;;5.29;100.00;100876.03;5085255;28;20494;-72
2023/12/14 01:06:07;;;;;;;45.45;22.90;;;;;;;5.29;100.00;100873.41;5085915;28;20463;-72
2023/12/14 01:08:32;;;;;;;44.72;22.13;;;;;;;5.24;100.00;100889.91;5083807;28;20085;-72
2023/12/14 01:10:57;;;;;;;42.67;21.38;;;;;;;5.23;100.00;100884.63;5087065;28;20028;-71
2023/12/14 01:13:23;;;;;;;40.55;20.80;;;;;;;5.14;100.00;100884.34;5083525;28;20471;-72
2023/12/14 01:15:48;;;;;;;42.55;20.80;;;;;;;5.12;100.00;100896.53;5085904;28;20403;-71
2023/12/14 01:18:13;;;;;;;41.47;21.10;;;;;;;5.12;100.00;100900.03;5084939;28;20024;-72
2023/12/14 01:20:39;;;;;;;41.20;20.90;;;;;;;5.13;100.00;100911.41;5084456;28;20020;-73
2023/12/14 01:23:04;;;;;;;40.45;20.23;;;;;;;5.08;100.00;100906.03;5085894;28;20107;-72
2023/12/14 01:25:30;;;;;;;37.38;18.65;;;;;;;5.11;100.00;100916.63;5083361;28;20044;-72
2023/12/14 01:27:55;;;;;;;36.47;18.17;;;;;;;5.07;100.00;100920.00;5078952;28;20039;-73
2023/12/14 01:30:20;;;;;;;34.97;18.23;;;;;;;5.06;100.00;100926.94;5085972;28;20036;-67
2023/12/14 01:32:46;;;;;;;35.85;18.60;;;;;;;5.04;100.00;100940.88;5084362;28;20020;-73
2023/12/14 01:35:11;;;;;;;35.05;18.25;;;;;;;5.07;100.00;100944.47;5084368;28;20116;-71
2023/12/14 01:37:36;;;;;;;34.92;18.65;;;;;;;5.01;100.00;100946.91;5085979;28;20143;-72
2023/12/14 01:40:02;;;;;;;35.75;19.15;;;;;;;5.04;100.00;100938.25;5082901;28;20024;-72
2023/12/14 01:42:27;;;;;;;35.05;18.73;;;;;;;5.02;100.00;100950.41;5086340;28;20036;-73
2023/12/14 01:44:52;;;;;;;33.75;17.85;;;;;;;5.00;100.00;100952.09;5082895;28;20029;-71
2023/12/14 01:47:18;;;;;;;34.10;17.30;;;;;;;5.03;100.00;100955.69;5085185;28;20067;-73
2023/12/14 01:49:43;;;;;;;32.72;17.70;;;;;;;4.99;100.00;100958.19;5083316;28;20027;-72
2023/12/14 01:52:08;;;;;;;34.40;17.90;;;;;;;4.97;100.00;100970.38;5084023;28;20443;-72
2023/12/14 01:54:35;;;;;;;32.83;17.98;;;;;;;4.98;100.00;100972.13;5085002;28;20075;-72
2023/12/14 01:57:00;;;;;;;32.60;16.85;;;;;;;4.95;100.00;100979.88;5082568;28;20044;-67
2023/12/14 01:59:25;;;;;;;32.15;17.33;;;;;;;4.94;100.00;100986.00;5086122;28;20039;-72
2023/12/14 02:01:56;;;;;;;31.98;16.50;;;;;;;4.94;100.00;100991.25;5083014;28;20031;-66
2023/12/14 02:04:23;;;;;;;32.15;17.05;;;;;;;4.91;100.00;100994.66;5085167;28;20032;-73
2023/12/14 02:06:48;;;;;;;31.45;16.40;;;;;;;4.95;100.00;100993.00;5083435;28;20032;-70
2023/12/14 02:09:14;;;;;;;32.55;16.92;;;;;;;4.85;100.00;101000.59;5084112;28;20032;-73
2023/12/14 02:11:39;;;;;;;32.47;17.05;;;;;;;4.89;100.00;101006.78;5084521;28;20149;-69
2023/12/14 02:14:11;;;;;;;31.63;17.20;;;;;;;4.87;100.00;101012.00;5082978;28;20044;-72
2023/12/14 02:16:38;;;;;;;32.75;17.67;;;;;;;4.89;100.00;101020.81;5084811;28;20040;-72
2023/12/14 02:19:04;;;;;;;31.88;16.85;;;;;;;4.87;100.00;101024.22;5082516;28;20081;-72
2023/12/14 02:21:30;;;;;;;32.50;17.15;;;;;;;4.83;100.00;101031.06;5085635;28;20531;-72
2023/12/14 02:23:55;;;;;;;32.15;17.73;;;;;;;4.85;100.00;101032.03;5082211;28;20123;-73
2023/12/14 02:26:20;;;;;;;32.25;17.60;;;;;;;4.83;100.00;101035.44;5084751;28;20062;-72
2023/12/14 02:28:46;;;;;;;31.08;16.75;;;;;;;4.81;100.00;101043.25;5083412;28;20024;-68
2023/12/14 02:31:11;;;;;;;31.52;16.80;;;;;;;4.77;100.00;101036.13;5083268;28;20387;-72
2023/12/14 02:33:37;;;;;;;30.67;16.73;;;;;;;4.80;100.00;101033.59;5084379;28;20059;-70
2023/12/14 02:36:03;;;;;;;32.05;16.92;;;;;;;4.80;100.00;101044.06;5082109;28;20055;-73
2023/12/14 02:38:29;;;;;;;31.67;17.23;;;;;;;4.77;100.00;101046.59;5085325;28;20501;-72
2023/12/14 02:40:54;;;;;;;32.70;17.85;;;;;;;4.79;100.00;101055.41;5081853;28;20107;-70
2023/12/14 02:43:19;;;;;;;32.53;17.65;;;;;;;4.79;100.00;101052.78;5084390;28;20029;-73
2023/12/14 02:45:45;;;;;;;33.05;17.55;;;;;;;4.79;100.00;101065.91;5083060;28;20032;-70
2023/12/14 02:48:11;;;;;;;33.45;19.05;;;;;;;4.76;100.00;101071.03;5083118;28;20052;-70
2023/12/14 02:50:37;;;;;;;33.75;18.38;;;;;;;4.73;100.00;101076.16;5084147;28;20375;-70
2023/12/14 02:53:02;;;;;;;32.13;17.83;;;;;;;4.72;100.00;101080.50;5081669;28;20032;-71
2023/12/14 02:55:27;;;;;;;30.20;17.05;;;;;;;4.70;100.00;101082.22;5084934;28;20056;-73
2023/12/14 02:57:53;;;;;;;32.67;17.42;;;;;;;4.72;100.00;101082.25;5080894;28;20021;-67
2023/12/14 03:00:19;;;;;;;30.80;17.00;;;;;;;4.68;100.00;101086.47;5083753;28;20032;-73
2023/12/14 03:02:44;;;;;;;32.95;17.10;;;;;;;4.68;100.00;101090.84;5083110;28;20031;-73
2023/12/14 03:05:09;;;;;;;30.55;16.92;;;;;;;4.68;100.00;101104.81;5082325;28;20494;-67
2023/12/14 03:07:35;;;;;;;30.90;16.92;;;;;;;4.65;100.00;101096.00;5084100;28;20023;-69
2023/12/14 03:10:00;;;;;;;29.33;16.92;;;;;;;4.66;100.00;101095.13;5081357;28;20494;-71
2023/12/14 03:12:25;;;;;;;31.45;16.98;;;;;;;4.72;100.00;101106.69;5084460;28;20032;-67
2023/12/14 03:14:50;;;;;;;29.77;16.52;;;;;;;4.70;100.00;101112.72;5081688;28;20489;-72
2023/12/14 03:17:17;;;;;;;30.55;17.13;;;;;;;4.69;100.00;101111.84;5083410;28;20076;-70
2023/12/14 03:19:42;;;;;;;30.20;16.83;;;;;;;4.67;100.00;101110.00;5083161;28;20480;-73
2023/12/14 03:22:08;;;;;;;29.75;16.08;;;;;;;4.70;100.00;101112.72;5082135;28;20059;-73
2023/12/14 03:24:35;;;;;;;30.98;16.88;;;;;;;4.68;100.00;101120.53;5084124;28;20032;-73
2023/12/14 03:27:02;;;;;;;29.38;16.27;;;;;;;4.70;100.00;101112.72;5081144;28;20035;-71
2023/12/14 03:29:27;;;;;;;30.75;16.92;;;;;;;4.67;100.00;101118.75;5077104;28;20029;-72
2023/12/14 03:31:53;;;;;;;29.80;17.00;;;;;;;4.64;100.00;101117.78;5083715;28;20065;-71
2023/12/14 03:34:18;;;;;;;30.95;17.83;;;;;;;4.65;100.00;101115.19;5081841;28;20064;-71
2023/12/14 03:36:43;;;;;;;30.10;16.90;;;;;;;4.65;100.00;101109.09;5082708;28;20021;-72
2023/12/14 03:39:10;;;;;;;29.20;17.02;;;;;;;4.62;100.00;101114.22;5083158;28;20028;-68
2023/12/14 03:41:35;;;;;;;30.75;17.25;;;;;;;4.62;100.00;101119.47;5081476;28;20166;-72
2023/12/14 03:44:00;;;;;;;30.45;17.30;;;;;;;4.63;100.00;101127.38;5084247;28;20107;-71
2023/12/14 03:46:26;;;;;;;30.58;17.48;;;;;;;4.63;100.00;101121.22;5080694;28;20032;-68
2023/12/14 03:48:51;;;;;;;29.95;17.35;;;;;;;4.62;100.00;101125.56;5083392;28;20031;-72
2023/12/14 03:51:20;;;;;;;30.80;17.08;;;;;;;4.66;100.00;101139.66;5082405;28;20081;-72
2023/12/14 03:53:45;;;;;;;30.52;17.42;;;;;;;4.68;100.00;101135.38;5082770;28;20021;-73
2023/12/14 03:56:11;;;;;;;29.17;16.98;;;;;;;4.63;100.00;101142.16;5082733;28;20127;-72
2023/12/14 03:58:36;;;;;;;29.83;17.27;;;;;;;4.60;100.00;101144.69;5081689;28;20101;-72
2023/12/14 04:01:01;;;;;;;29.33;17.05;;;;;;;4.62;100.00;101150.88;5084122;28;20031;-73
2023/12/14 04:03:27;;;;;;;29.83;17.60;;;;;;;4.59;100.00;101151.66;5076340;28;20483;-73
2023/12/14 04:05:52;;;;;;;29.25;17.30;;;;;;;4.60;100.00;101142.97;5083559;28;20423;-71
2023/12/14 04:08:18;;;;;;;29.92;18.15;;;;;;;4.58;100.00;101144.63;5082708;28;20103;-72
2023/12/14 04:10:43;;;;;;;29.80;17.35;;;;;;;4.59;100.00;101146.44;5086346;28;20513;-69
2023/12/14 04:13:08;;;;;;;29.40;17.52;;;;;;;4.61;100.00;101149.09;5087084;28;20062;-72
2023/12/14 04:15:34;;;;;;;29.40;17.38;;;;;;;4.57;100.00;101142.84;5084940;28;20036;-72
2023/12/14 04:17:59;;;;;;;29.38;17.00;;;;;;;4.57;100.00;101139.34;5088102;28;20540;-70
2023/12/14 04:20:24;;;;;;;28.48;16.50;;;;;;;4.57;100.00;101152.44;5084717;28;20063;-73
2023/12/14 04:22:49;;;;;;;29.25;17.00;;;;;;;4.60;100.00;101157.78;5086825;28;20476;-73
2023/12/14 04:25:15;;;;;;;29.50;16.95;;;;;;;4.58;100.00;101162.09;5085998;28;20024;-72
2023/12/14 04:27:40;;;;;;;28.25;16.48;;;;;;;4.55;100.00;101165.50;5085386;28;20486;-71
2023/12/14 04:30:10;;;;;;;28.92;16.50;;;;;;;4.54;100.00;101172.47;5087060;28;20429;-73
2023/12/14 04:32:38;;;;;;;28.40;16.48;;;;;;;4.58;100.00;101176.06;5084816;28;20036;-71
2023/12/14 04:35:05;;;;;;;28.98;16.52;;;;;;;4.56;100.00;101193.47;5087374;28;20073;-70
2023/12/14 04:37:30;;;;;;;28.77;16.45;;;;;;;4.56;100.00;101197.78;5084027;28;20040;-70
2023/12/14 04:39:56;;;;;;;28.23;16.02;;;;;;;4.54;100.00;101197.72;5087474;28;20028;-73
2023/12/14 04:42:22;;;;;;;29.10;16.70;;;;;;;4.51;100.00;101203.78;5084940;28;20513;-68
2023/12/14 04:44:47;;;;;;;28.85;16.08;;;;;;;4.54;100.00;101210.84;5086017;28;20029;-73
2023/12/14 04:47:12;;;;;;;28.70;15.75;;;;;;;4.56;100.00;101210.88;5084921;28;20039;-72
2023/12/14 04:49:38;;;;;;;29.58;17.23;;;;;;;4.53;100.00;101220.44;5084894;28;20037;-73
2023/12/14 04:52:04;;;;;;;29.05;16.88;;;;;;;4.54;100.00;101237.00;5086988;28;20024;-71
2023/12/14 04:54:29;;;;;;;29.38;17.35;;;;;;;4.49;100.00;101233.38;5083845;28;20052;-73
2023/12/14 04:56:54;;;;;;;29.40;17.40;;;;;;;4.51;100.00;101231.66;5087068;28;20036;-73
2023/12/14 04:59:20;;;;;;;29.75;17.35;;;;;;;4.53;100.00;101233.50;5084565;28;20024;-71
2023/12/14 05:01:45;;;;;;;29.10;17.30;;;;;;;4.54;100.00;101232.69;5085582;28;20028;-67
2023/12/14 05:04:11;;;;;;;29.30;17.35;;;;;;;4.56;100.00;101242.31;5085662;28;20479;-73
2023/12/14 05:06:38;;;;;;;31.17;18.10;;;;;;;4.54;100.00;101255.34;5083006;28;20420;-73
2023/12/14 05:09:05;;;;;;;28.83;17.38;;;;;;;4.54;100.00;101265.81;5086855;28;20028;-69
2023/12/14 05:11:30;;;;;;;30.23;17.88;;;;;;;4.52;100.00;101271.00;5083443;28;20036;-72
2023/12/14 05:13:56;;;;;;;29.52;17.20;;;;;;;4.60;100.00;101273.00;5086857;28;20027;-73
2023/12/14 05:16:21;;;;;;;30.98;18.33;;;;;;;4.56;100.00;101281.59;5084053;28;20028;-73
2023/12/14 05:18:46;;;;;;;29.95;17.80;;;;;;;4.60;100.00;101286.09;5085275;28;20104;-73
2023/12/14 05:21:18;;;;;;;30.40;17.88;;;;;;;4.56;100.00;101290.34;5084657;28;20112;-72
2023/12/14 05:23:44;;;;;;;30.63;18.40;;;;;;;4.56;100.00;101294.66;5084658;28;20059;-73
2023/12/14 05:26:09;;;;;;;29.52;18.00;;;;;;;4.53;100.00;101288.50;5085733;28;20292;-73
2023/12/14 05:28:35;;;;;;;30.55;18.25;;;;;;;4.56;100.00;101306.06;5082309;28;20119;-73
2023/12/14 05:31:00;;;;;;;30.55;18.38;;;;;;;4.51;100.00;101303.28;5086587;28;20028;-72
2023/12/14 05:33:26;;;;;;;29.83;17.92;;;;;;;4.49;100.00;101307.56;5083287;28;20031;-73
2023/12/14 05:35:51;;;;;;;29.92;18.27;;;;;;;4.53;100.00;101314.69;5085991;28;20020;-72
2023/12/14 05:38:16;;;;;;;29.75;17.60;;;;;;;4.51;100.00;101321.63;5084369;28;20490;-72
2023/12/14 05:40:42;;;;;;;29.40;17.88;;;;;;;4.51;100.00;101324.22;5084215;28;20032;-73
2023/12/14 05:43:07;;;;;;;28.73;16.85;;;;;;;4.50;100.00;101335.53;5085840;28;20115;-72
2023/12/14 05:45:33;;;;;;;29.50;18.02;;;;;;;4.49;100.00;101336.34;5082969;28;20451;-71
2023/12/14 05:47:58;;;;;;;29.63;17.63;;;;;;;4.52;100.00;101349.56;5086300;28;20420;-73
2023/12/14 05:50:23;;;;;;;30.10;17.88;;;;;;;4.51;100.00;101353.03;5083359;28;20035;-73
2023/12/14 05:52:49;;;;;;;30.02;18.27;;;;;;;4.52;100.00;101372.25;5085209;28;20527;-73
2023/12/14 05:55:14;;;;;;;29.75;17.80;;;;;;;4.54;100.00;101368.84;5084304;28;20040;-68
2023/12/14 05:57:40;;;;;;;29.30;17.45;;;;;;;4.54;100.00;101378.41;5083722;28;20032;-65
2023/12/14 06:00:07;;;;;;;29.98;18.75;;;;;;;4.50;100.00;101386.97;5085640;28;20398;-73
2023/12/14 06:02:32;;;;;;;29.48;18.20;;;;;;;4.51;100.00;101381.84;5082634;28;20074;-72
2023/12/14 06:04:58;;;;;;;29.25;17.92;;;;;;;4.52;100.00;101387.94;5085843;28;20036;-73
2023/12/14 06:07:24;;;;;;;29.13;18.05;;;;;;;4.48;100.00;101389.53;5082907;28;20541;-73
2023/12/14 06:09:49;;;;;;;36.63;29.30;;;;;;;4.51;100.00;101387.06;5084836;28;20060;-73
2023/12/14 06:12:15;;;;;;;30.42;20.25;;;;;;;4.50;100.00;101382.66;5084108;28;20028;-69
2023/12/14 06:14:40;;;;;;;29.23;17.83;;;;;;;4.51;100.00;101383.53;5083404;28;20032;-72
2023/12/14 06:17:05;;;;;;;29.25;17.77;;;;;;;4.52;100.00;101391.44;5085539;28;20024;-70
2023/12/14 06:19:32;;;;;;;28.58;17.98;;;;;;;4.50;100.00;101390.50;5082097;28;20094;-73
2023/12/14 06:21:57;;;;;;;29.05;17.42;;;;;;;4.49;100.00;101396.56;5085415;28;20111;-71
2023/12/14 06:24:22;;;;;;;29.55;18.02;;;;;;;4.51;100.00;101400.16;5082871;28;20115;-70
2023/12/14 06:26:48;;;;;;;28.95;17.23;;;;;;;4.52;100.00;101407.16;5084325;28;20461;-73
2023/12/14 06:29:13;;;;;;;28.45;17.30;;;;;;;4.52;100.00;101416.75;5084265;28;20067;-73
2023/12/14 06:31:39;;;;;;;29.15;17.85;;;;;;;4.53;100.00;101416.81;5082631;28;20027;-72
2023/12/14 06:34:05;;;;;;;30.63;19.88;;;;;;;4.54;100.00;101420.31;5085114;28;20034;-72
2023/12/14 06:36:31;;;;;;;28.88;18.05;;;;;;;4.54;100.00;101426.47;5082066;28;20032;-70
2023/12/14 06:38:59;;;;;;;30.30;20.15;;;;;;;4.54;100.00;101436.03;5085347;28;20355;-71
2023/12/14 06:41:26;;;;;;;29.58;19.02;;;;;;;4.52;100.00;101435.09;5082218;28;20115;-70
2023/12/14 06:43:52;;;;;;;30.23;19.25;;;;;;;4.54;100.00;101436.94;5084087;28;20044;-72
2023/12/14 06:46:17;;;;;;;29.95;18.13;;;;;;;4.52;100.00;101442.94;5083359;28;20032;-67
2023/12/14 06:48:42;;;;;;;28.98;17.63;;;;;;;4.57;100.00;101446.63;5082843;28;20502;-72
2023/12/14 06:51:08;;;;;;;29.38;17.15;;;;;;;4.56;100.00;101444.84;5084501;28;20028;-73
2023/12/14 06:53:35;;;;;;;28.80;17.67;;;;;;;4.55;100.00;101450.91;5081408;28;20024;-73
2023/12/14 06:56:00;;;;;;;31.00;18.52;;;;;;;4.59;100.00;101454.53;5077232;28;20098;-67
2023/12/14 06:58:25;;;;;;;32.30;19.38;;;;;;;4.54;100.00;101459.59;5084504;28;20024;-72
2023/12/14 07:00:51;;;;;;;33.05;19.90;;;;;;;4.54;100.00;101463.13;5082313;28;20047;-70
2023/12/14 07:03:16;;;;;;;34.67;20.42;;;;;;;4.49;100.00;101472.50;5082867;28;20029;-70
2023/12/14 07:05:42;;;;;;;33.03;18.90;;;;;;;4.49;100.00;101475.13;5083629;28;20378;-73
2023/12/14 07:08:07;;;;;;;34.78;20.63;;;;;;;4.44;100.00;101467.91;5081688;28;20450;-72
2023/12/14 07:10:32;;;;;;;34.58;19.98;;;;;;;4.42;100.00;101477.47;5084614;28;20101;-72
2023/12/14 07:12:58;;;;;;;35.58;20.15;;;;;;;4.41;100.00;101475.66;5081646;28;20471;-73
2023/12/14 07:15:24;;;;;;;33.20;19.05;;;;;;;4.36;100.00;101473.75;5083844;28;20032;-73
2023/12/14 07:17:49;;;;;;;34.92;19.30;;;;;;;4.33;100.00;101493.69;5082309;28;20023;-71
2023/12/14 07:20:15;;;;;;;34.17;18.85;;;;;;;4.35;100.00;101502.47;5081422;28;20032;-73
2023/12/14 07:22:41;;;;;;;33.47;19.10;;;;;;;4.28;100.00;101510.91;5083441;28;20051;-73
2023/12/14 07:25:08;;;;;;;34.75;19.30;;;;;;;4.29;100.00;101517.94;5081196;28;20032;-72
2023/12/14 07:27:33;;;;;;;33.17;18.60;;;;;;;4.30;100.00;101517.13;5084819;28;20036;-73
2023/12/14 07:29:58;;;;;;;34.00;19.45;;;;;;;4.26;100.00;101523.94;5080919;28;20029;-74
2023/12/14 07:32:24;;;;;;;34.25;19.13;;;;;;;4.29;100.00;101531.03;5083947;28;20078;-74
2023/12/14 07:34:49;;;;;;;33.85;19.00;;;;;;;4.28;100.00;101539.72;5081208;28;20035;-74
2023/12/14 07:37:14;;;;;;;32.83;18.25;;;;;;;4.30;100.00;101535.47;5082238;28;20550;-70
2023/12/14 07:39:40;;;;;;;33.67;18.55;;;;;;;4.28;100.00;101539.72;5083665;28;20040;-71
2023/12/14 07:42:05;;;;;;;33.45;18.90;;;;;;;4.24;100.00;101538.72;5080899;28;20486;-73
2023/12/14 07:44:31;;;;;;;32.22;18.00;;;;;;;4.27;100.00;101543.19;5083700;28;20424;-74
2023/12/14 07:46:59;;;;;;;32.58;18.00;;;;;;;4.28;100.00;101551.09;5081257;28;20421;-70
2023/12/14 07:49:25;;;;;;;32.67;18.35;;;;;;;4.26;100.00;101544.88;5083466;28;20030;-68
2023/12/14 07:51:51;;;;;;;30.80;16.98;;;;;;;4.27;100.00;101548.41;5082139;28;20035;-67
2023/12/14 07:54:16;;;;;;;31.95;17.45;;;;;;;4.31;100.00;101559.06;5082765;28;20025;-74
2023/12/14 07:56:42;;;;;;;30.15;17.00;;;;;;;4.30;100.00;101557.28;5081865;28;20386;-74
2023/12/14 07:59:07;;;;;;;31.23;16.20;;;;;;;4.28;100.00;101566.81;5081027;28;20029;-72
2023/12/14 08:01:33;;;;;;;32.13;16.38;;;;;;;4.27;100.00;101572.84;5084291;28;20061;-71
2023/12/14 08:03:59;;;;;;;29.05;14.70;;;;;;;4.26;100.00;101572.81;5080601;28;20075;-74
2023/12/14 08:06:24;;;;;;;28.35;14.50;;;;;;;4.27;100.00;101577.22;5083145;28;20081;-72
2023/12/14 08:08:49;;;;;;;28.27;15.18;;;;;;;4.24;100.00;101580.59;5082030;28;20084;-70
2023/12/14 08:11:15;;;;;;;28.83;14.70;;;;;;;4.26;100.00;101583.28;5081923;28;20056;-68
2023/12/14 08:13:40;;;;;;;26.80;14.18;;;;;;;4.25;100.00;101584.09;5083029;28;20024;-69
2023/12/14 08:16:07;;;;;;;27.23;14.40;;;;;;;4.22;100.00;101584.84;5080865;28;20024;-73
2023/12/14 08:18:32;;;;;;;27.75;14.43;;;;;;;4.21;100.00;101577.84;5083913;28;20379;-72
2023/12/14 08:20:58;;;;;;;28.13;14.73;;;;;;;4.22;100.00;101589.19;5080761;28;20035;-73
2023/12/14 08:23:27;;;;;;;26.75;14.02;;;;;;;4.21;100.00;101587.41;5082991;28;20111;-72
2023/12/14 08:25:53;;;;;;;27.08;14.23;;;;;;;4.23;100.00;101606.69;5081359;28;20038;-73
2023/12/14 08:28:18;;;;;;;27.27;14.73;;;;;;;4.23;100.00;101618.06;5082613;28;20059;-72
2023/12/14 08:30:43;;;;;;;28.77;14.43;;;;;;;4.19;100.00;101617.03;5082482;28;20467;-67
2023/12/14 08:33:09;;;;;;;26.38;13.95;;;;;;;4.19;100.00;101627.50;5080834;28;20033;-73
2023/12/14 08:35:34;;;;;;;25.98;14.23;;;;;;;4.16;100.00;101629.97;5083945;28;20509;-72
2023/12/14 08:37:59;;;;;;;25.98;14.27;;;;;;;4.22;100.00;101623.22;5080172;28;20040;-70
2023/12/14 08:40:25;;;;;;;27.70;15.07;;;;;;;4.21;100.00;101629.28;5082966;28;20032;-69
2023/12/14 08:42:50;;;;;;;27.00;14.95;;;;;;;4.18;100.00;101640.53;5081811;28;20210;-71
2023/12/14 08:45:16;;;;;;;25.42;14.30;;;;;;;4.22;100.00;101652.00;5081923;28;20071;-73
2023/12/14 08:47:42;;;;;;;26.45;14.57;;;;;;;4.19;100.00;101648.44;5082759;28;20024;-73
2023/12/14 08:50:08;;;;;;;25.35;14.05;;;;;;;4.21;100.00;101655.44;5079475;28;20116;-69
2023/12/14 08:55:55;;;;;;;25.08;13.38;;;;;;;4.19;100.00;101655.38;5068198;28;20068;-70
2023/12/14 08:58:21;;;;;;;25.50;14.20;;;;;;;4.19;100.00;101648.44;5082733;28;20052;-72
2023/12/14 09:00:52;;;;;;;24.98;14.00;;;;;;;4.18;100.00;101658.84;5085272;28;20049;-72
2023/12/14 09:03:23;;;;;;;30.90;20.73;;;;;;;4.21;100.00;101661.59;5085289;28;20025;-72
2023/12/14 09:05:49;;;;;;;25.05;14.23;;;;;;;4.16;100.00;101658.75;5085566;28;20238;-73
2023/12/14 09:08:14;;;;;;;25.73;14.25;;;;;;;4.19;100.00;101664.16;5085727;28;20359;-69
2023/12/14 09:10:39;;;;;;;25.13;13.77;;;;;;;4.22;100.00;101672.94;5084179;28;20029;-74
2023/12/14 09:13:05;;;;;;;25.23;13.05;;;;;;;4.18;100.00;101679.78;5087106;28;20032;-72
2023/12/14 09:15:34;;;;;;;25.27;14.05;;;;;;;4.21;100.00;101686.84;5079256;28;20074;-73
2023/12/14 09:17:59;;;;;;;24.50;13.82;;;;;;;4.26;100.00;101694.09;5086598;28;20103;-72
2023/12/14 09:20:25;;;;;;;24.45;14.00;;;;;;;4.32;100.00;101701.31;5084152;28;20123;-74
2023/12/14 09:22:52;;;;;;;25.00;14.30;;;;;;;4.34;100.00;101704.91;5085262;28;20024;-73
2023/12/14 09:33:41;;;;;;;24.63;13.15;;;;;;;4.42;100.00;101724.44;5083561;28;20094;-73
2023/12/14 09:36:07;;;;;;;23.85;12.90;;;;;;;4.43;100.00;101735.84;5086582;28;20107;-73
2023/12/14 09:38:32;;;;;;;24.33;13.50;;;;;;;4.46;100.00;101728.13;5083202;28;20510;-73
2023/12/14 09:40:58;;;;;;;23.80;12.65;;;;;;;4.52;100.00;101746.69;5085972;28;20027;-73
2023/12/14 09:43:23;;;;;;;24.17;12.80;;;;;;;4.53;100.00;101749.38;5084032;28;20052;-74
2023/12/14 09:45:49;;;;;;;24.50;12.88;;;;;;;4.54;100.00;101740.72;5084662;28;20060;-67
2023/12/14 09:48:16;;;;;;;24.30;13.07;;;;;;;4.55;100.00;101744.22;5084912;28;20024;-74
2023/12/14 09:50:42;;;;;;;23.63;12.57;;;;;;;4.54;100.00;101750.28;5083665;28;20082;-69
2023/12/14 09:53:08;;;;;;;23.83;12.20;;;;;;;4.53;100.00;101759.84;5085809;28;20115;-72
2023/12/14 09:55:33;;;;;;;24.63;12.93;;;;;;;4.54;100.00;101755.50;5082575;28;20422;-73
2023/12/14 09:57:59;;;;;;;23.52;12.23;;;;;;;4.54;100.00;101765.97;5085818;28;20040;-72
2023/12/14 10:00:35;;;;;;;23.40;12.35;;;;;;;4.56;100.00;101776.53;5083395;28;20078;-71
2023/12/14 10:03:20;;;;;;;24.05;12.82;;;;;;;4.62;100.00;101775.06;5085823;28;20032;-69
2023/12/14 10:05:46;;;;;;;24.40;12.05;;;;;;;4.53;100.00;101778.19;5081282;28;20039;-73
2023/12/14 10:08:12;;;;;;;23.70;12.27;;;;;;;4.56;100.00;101789.63;5085043;28;20035;-71
2023/12/14 10:10:37;;;;;;;23.67;12.68;;;;;;;4.52;100.00;101792.09;5082660;28;20040;-68
2023/12/14 10:13:03;;;;;;;24.38;12.50;;;;;;;4.57;100.00;101801.91;5085972;28;20039;-73
2023/12/14 10:15:29;;;;;;;23.63;12.07;;;;;;;4.54;100.00;101795.69;5082515;28;20040;-73
2023/12/14 10:17:55;;;;;;;22.65;11.50;;;;;;;4.56;100.00;101790.53;5084536;28;20581;-73
2023/12/14 10:20:26;;;;;;;22.48;11.32;;;;;;;4.44;100.00;101790.88;5083224;28;20035;-67
2023/12/14 10:22:52;;;;;;;25.20;13.25;;;;;;;4.48;100.00;101792.78;5084632;28;20020;-69
2023/12/14 10:25:19;;;;;;;23.10;11.68;;;;;;;4.56;100.00;101795.78;5082478;28;20024;-73
2023/12/14 10:27:48;;;;;;;23.35;12.20;;;;;;;4.47;100.00;101809.34;5083123;28;20520;-72
2023/12/14 10:30:15;;;;;;;22.77;11.90;;;;;;;4.48;100.00;101807.63;5084599;28;20483;-66
2023/12/14 10:32:41;;;;;;;24.08;12.73;;;;;;;4.45;100.00;101807.47;5082670;28;20170;-72
2023/12/14 10:35:07;;;;;;;23.50;12.32;;;;;;;4.44;100.00;101806.59;5085311;28;20024;-69
2023/12/14 10:41:08;;;;;;;23.58;12.02;;;;;;;4.41;100.00;101811.66;5079205;28;20488;-73
2023/12/14 10:43:36;;;;;;;23.48;11.88;;;;;;;4.46;100.00;101817.16;5085065;28;20036;-73
2023/12/14 10:46:05;;;;;;;24.50;12.57;;;;;;;4.48;100.00;101818.97;5077646;28;20086;-74
2023/12/14 10:48:31;;;;;;;23.52;11.65;;;;;;;4.54;100.00;101816.66;5085260;28;20024;-73
2023/12/14 10:51:01;;;;;;;23.05;11.90;;;;;;;4.61;100.00;101824.78;5082087;28;20028;-74
2023/12/14 10:53:26;;;;;;;22.60;10.68;;;;;;;4.67;100.00;101817.19;5084293;28;20020;-74
2023/12/14 10:55:53;;;;;;;21.98;10.13;;;;;;;4.75;100.00;101823.66;5083068;28;20097;-74
2023/12/14 10:58:19;;;;;;;21.42;9.90;;;;;;;4.82;100.00;101825.72;5082945;28;20135;-74
2023/12/14 11:00:59;;;;;;;21.58;9.65;;;;;;;5.00;100.00;101825.59;5083598;28;20032;-74
2023/12/14 11:03:26;;;;;;;21.05;9.02;;;;;;;5.04;100.00;101826.66;5083665;28;20048;-74
2023/12/14 11:05:51;;;;;;;21.33;9.57;;;;;;;5.11;100.00;101818.22;5082710;28;20063;-74
2023/12/14 11:08:17;;;;;;;22.88;10.60;;;;;;;5.23;100.00;101817.84;5082593;28;20056;-74
2023/12/14 11:10:55;;;;;;;21.48;10.27;;;;;;;5.45;100.00;101819.59;5083583;28;20020;-74
2023/12/14 11:13:21;;;;;;;21.33;9.40;;;;;;;5.62;100.00;101825.56;5083001;28;20032;-74
2023/12/14 11:15:51;;;;;;;20.60;9.48;;;;;;;5.64;100.00;101825.59;5083393;28;20032;-74
2023/12/14 11:18:21;;;;;;;21.33;9.35;;;;;;;5.75;100.00;101833.06;5081846;28;20028;-74